Latest Weather Observations for Merimbula

IDN60801

Issued at 7:32 pm EDT Friday 20 October 2017 (issued every 30 minutes, with the page automatically refreshed every 10 minutes)

About weather observations | Map of weather stations | Latest weather observations for NSW | Other Formats
Station Details ID: 069147 Name: MERIMBULA AIRPORT AWS Lat: -36.91 Lon: 149.90 Height: 1.5 m
Data from the previous 72 hours. | See also: Recent months at Merimbula
Date/Time
EDT
Temp
°C
App
Temp
°C
Dew
Point
°C
Rel
Hum
%
Delta-T
°C
Wind Press
QNH
hPa
Press
MSL
hPa
Rain since
9am
mm
Dir  Spd
km/h
Gust
km/h
Spd
kts
Gust
kts
20/07:30pm 14.8 10.2 3.9 48 5.0 SSW 17 26 9 14 1024.6 1024.6 0.0
20/07:00pm 16.0 10.7 2.1 39 6.2 S 19 32 10 17 1024.0 1024.0 0.0
20/06:30pm 17.2 11.6 1.2 34 7.1 SSW 20 32 11 17 1023.4 1023.4 0.0
20/06:00pm 18.0 11.7 1.5 33 7.3 S 24 35 13 19 1022.9 1022.9 0.0
20/05:30pm 18.8 12.2 1.8 32 7.7 SSW 26 39 14 21 1022.2 1022.2 0.0
20/05:00pm 19.9 15.2 3.2 33 7.8 SW 17 30 9 16 1022.0 1022.0 0.0
20/04:30pm 19.5 13.5 3.2 34 7.6 SSW 24 39 13 21 1021.9 1021.9 0.0
20/04:00pm 19.8 15.0 5.5 39 7.0 S 20 30 11 16 1021.8 1021.8 0.0
20/03:30pm 19.7 15.1 6.4 42 6.6 SW 20 33 11 18 1022.0 1022.0 0.0
20/03:00pm 19.9 15.3 6.6 42 6.7 SSW 20 33 11 18 1022.0 1022.0 0.0
20/02:30pm 18.5 14.1 6.7 46 5.9 WSW 19 30 10 16 1022.1 1022.1 0.0
20/02:00pm 18.0 13.7 7.7 51 5.2 SSW 20 33 11 18 1022.5 1022.5 0.0
20/01:30pm 18.7 14.7 8.1 50 5.4 SW 19 30 10 16 1022.3 1022.3 0.0
20/01:00pm 17.2 12.9 7.8 54 4.7 SW 20 32 11 17 1022.6 1022.6 0.0
20/12:30pm 16.9 12.6 7.8 55 4.6 SW 20 35 11 19 1022.8 1022.8 0.0
20/12:00pm 17.1 11.7 8.0 55 4.6 SSW 26 37 14 20 1022.8 1022.8 0.0
20/11:30am 17.6 13.3 7.9 53 4.9 SSW 20 33 11 18 1022.6 1022.6 0.0
20/11:00am 17.6 13.8 7.6 52 5.0 SW 17 28 9 15 1022.6 1022.6 0.0
20/10:30am 16.5 12.1 7.4 55 4.5 SW 20 32 11 17 1022.7 1022.7 0.0
20/10:00am 15.7 11.3 7.5 58 4.1 SSW 20 30 11 16 1022.6 1022.6 0.0
20/09:30am 15.4 11.8 8.4 63 3.5 SW 17 26 9 14 1022.2 1022.2 0.0
20/09:00am 14.6 11.0 8.5 67 3.1 SSW 17 24 9 13 1022.3 1022.3 6.2
20/08:30am 14.3 11.5 8.7 69 2.8 SSW 13 20 7 11 1022.0 1022.0 6.2
20/08:00am 13.6 10.5 8.7 72 2.5 SSW 15 20 8 11 1021.7 1021.7 6.2
20/07:30am 13.6 10.3 8.2 70 2.7 SSW 15 20 8 11 1021.4 1021.4 6.2
20/07:00am 13.4 11.6 9.3 76 2.1 SW 9 15 5 8 1020.9 1020.9 6.2
20/06:30am 13.4 12.4 11.1 86 1.2 SSW 7 9 4 5 1020.6 1020.6 6.2
20/06:00am 13.4 12.6 11.1 86 1.2 SSE 6 9 3 5 1020.1 1020.1 6.2
20/05:30am 14.0 12.2 10.8 81 1.7 SSW 11 19 6 10 1019.6 1019.6 6.2
20/05:00am 14.8 12.4 10.2 74 2.4 SSW 13 19 7 10 1019.2 1019.2 6.0
20/04:30am 14.8 12.5 10.6 76 2.2 SSW 13 20 7 11 1019.0 1019.0 6.0
20/04:00am 15.2 12.6 10.8 75 2.3 SSW 15 24 8 13 1018.8 1018.8 6.0
20/03:30am 15.7 14.4 12.5 81 1.8 S 11 17 6 9 1018.7 1018.7 6.0
20/03:00am 15.9 14.8 13.2 84 1.5 S 11 15 6 8 1018.7 1018.7 6.0
20/02:30am 16.3 15.1 14.0 86 1.3 SSW 13 22 7 12 1018.9 1018.9 6.0
20/02:23am 16.5 15.0 14.2 86 1.3 SW 15 30 8 16 1018.9 1018.9 6.0
20/02:02am 17.1 15.2 15.3 89 1.0 SSW 19 30 10 16 1018.8 1018.8 5.8
20/02:00am 17.2 15.4 15.4 89 1.0 SSW 19 30 10 16 1018.8 1018.8 5.8
20/01:36am 17.8 20.2 17.0 95 0.5 CALM 0 0 0 0 1018.2 1018.2 5.8
20/01:30am 17.8 20.2 17.0 95 0.5 CALM 0 0 0 0 1018.1 1018.1 5.8
20/01:00am 17.8 20.2 17.0 95 0.5 CALM 0 0 0 0 1018.1 1018.1 5.8
20/12:37am 18.2 20.0 17.4 95 0.5 S 4 15 2 8 1018.3 1018.3 5.6
20/12:30am 18.3 20.9 17.5 95 0.5 CALM 0 0 0 0 1018.3 1018.3 5.6
20/12:00am 18.2 20.3 17.2 94 0.6 NW 2 9 1 5 1018.3 1018.3 5.4
 
Date/Time
EDT
Temp
°C
App
Temp
°C
Dew
Point
°C
Rel
Hum
%
Delta-T
°C
Wind Press
QNH
hPa
Press
MSL
hPa
Rain since
9am
mm
Dir  Spd
km/h
Gust
km/h
Spd
kts
Gust
kts
19/11:30pm 18.4 19.8 17.4 94 0.6 NW 6 9 3 5 1018.2 1018.2 5.4
19/11:00pm 18.4 21.0 17.4 94 0.6 CALM 0 0 0 0 1018.2 1018.2 5.4
19/10:37pm 18.5 20.4 17.7 95 0.5 NNE 4 11 2 6 1018.5 1018.5 5.4
19/10:30pm 18.5 20.0 17.7 95 0.5 NNE 6 11 3 6 1018.4 1018.4 5.2
19/10:23pm 18.4 20.7 17.6 95 0.5 NNW 2 9 1 5 1018.6 1018.6 5.2
19/10:22pm 18.3 20.5 17.5 95 0.5 NW 2 9 1 5 1018.6 1018.6 5.0
19/10:00pm 18.3 18.8 17.5 95 0.5 NNW 11 13 6 7 1018.8 1018.8 4.4
19/09:48pm 18.3 20.1 17.5 95 0.5 NW 4 13 2 7 1019.0 1019.0 3.2
19/09:30pm 18.2 20.7 17.2 94 0.6 CALM 0 0 0 0 1019.0 1019.0 2.6
19/09:12pm 18.1 20.5 17.1 94 0.6 CALM 0 0 0 0 1019.1 1019.1 2.6
19/09:00pm 18.1 20.5 17.1 94 0.6 CALM 0 0 0 0 1018.7 1018.7 2.6
19/08:30pm 18.1 20.5 17.1 94 0.6 CALM 0 0 0 0 1018.4 1018.4 2.4
19/08:00pm 17.8 20.0 16.5 92 0.8 CALM 0 0 0 0 1018.3 1018.3 2.2
19/07:46pm 17.9 18.7 16.4 91 0.9 ESE 7 11 4 6 1018.0 1018.0 2.2
19/07:30pm 18.0 18.5 16.5 91 0.9 SE 9 15 5 8 1017.9 1017.9 2.2
19/07:19pm 18.1 18.2 16.6 91 0.9 SE 11 15 6 8 1017.6 1017.6 2.2
19/07:00pm 18.3 20.2 16.8 91 0.9 E 2 11 1 6 1017.6 1017.6 2.2
19/06:39pm 18.8 20.9 17.3 91 0.9 E 2 7 1 4 1017.8 1017.8 1.8
19/06:30pm 19.0 21.6 17.5 91 0.9 CALM 0 7 0 4 1017.6 1017.6 1.6
19/06:07pm 19.2 19.8 17.7 91 0.9 SW 11 22 6 12 1017.7 1017.7 1.2
19/06:00pm 19.2 19.4 17.7 91 0.9 SSW 13 22 7 12 1017.7 1017.7 1.0
19/05:46pm 19.1 19.9 17.2 89 1.2 WSW 9 13 5 7 1017.6 1017.6 0.6
19/05:30pm 19.1 21.2 17.1 88 1.2 N 2 7 1 4 1017.2 1017.2 0.4
19/05:00pm 19.1 18.3 16.1 83 1.8 SE 15 20 8 11 1016.9 1016.9 0.2
19/04:30pm 20.6 20.9 14.9 70 3.3 NE 7 13 4 7 1016.0 1016.0 0.0
19/04:00pm 21.3 20.9 15.2 68 3.6 NE 11 20 6 11 1015.5 1015.5 0.0
19/03:30pm 20.5 18.3 14.8 70 3.3 NE 20 33 11 18 1015.4 1015.4 0.0
19/03:00pm 21.0 17.9 14.4 66 3.8 NE 24 35 13 19 1015.2 1015.2 0.0
19/02:30pm 21.8 19.8 14.9 65 4.1 NE 19 32 10 17 1015.9 1015.9 0.0
19/02:00pm 22.0 20.1 15.1 65 4.1 NE 19 32 10 17 1016.3 1016.3 0.0
19/01:30pm 21.9 19.7 15.0 65 4.1 NE 20 32 11 17 1016.6 1016.6 0.0
19/01:00pm 21.4 19.1 14.6 65 4.0 NE 20 33 11 18 1016.7 1016.7 0.0
19/12:30pm 21.8 19.3 14.2 62 4.4 NE 20 33 11 18 1017.0 1017.0 0.0
19/12:00pm 22.4 20.2 15.0 63 4.4 NE 20 35 11 19 1017.5 1017.5 0.0
19/11:30am 20.7 18.4 14.6 68 3.6 NE 20 33 11 18 1018.1 1018.1 0.0
19/11:00am 21.1 18.7 14.3 65 4.0 NE 20 35 11 19 1018.6 1018.6 0.0
19/10:30am 21.9 19.7 14.5 63 4.3 NE 19 28 10 15 1019.0 1019.0 0.0
19/10:00am 21.7 20.0 14.6 64 4.2 NE 17 24 9 13 1019.4 1019.4 0.0
19/09:30am 21.4 21.6 14.8 66 3.9 SE 7 11 4 6 1019.8 1019.8 0.0
19/09:00am 19.5 19.3 14.7 74 2.8 ESE 9 13 5 7 1020.1 1020.1 0.0
19/08:30am 18.3 18.9 14.2 77 2.4 ESE 4 11 2 6 1020.4 1020.4 0.0
19/08:00am 16.9 17.4 14.9 88 1.2 NW 6 11 3 6 1020.6 1020.6 0.0
19/07:30am 14.3 15.5 13.8 97 0.3 CALM 0 6 0 3 1020.6 1020.6 0.0
19/07:00am 12.5 13.1 11.9 96 0.3 CALM 0 0 0 0 1020.6 1020.6 0.0
19/06:30am 11.4 11.2 10.6 95 0.4 SW 2 7 1 4 1020.6 1020.6 0.0
19/06:00am 12.2 12.7 11.7 97 0.3 CALM 0 0 0 0 1020.6 1020.6 0.0
19/05:30am 10.9 11.0 10.0 94 0.5 CALM 0 0 0 0 1020.6 1020.6 0.0
19/05:00am 11.2 11.4 10.4 95 0.4 CALM 0 0 0 0 1020.8 1020.8 0.0
19/04:58am 11.3 11.5 10.5 95 0.4 CALM 0 0 0 0 1020.7 1020.7 0.0
19/04:30am 11.1 11.2 10.2 94 0.5 CALM 0 0 0 0 1020.8 1020.8 0.0
19/04:05am 11.7 12.0 10.8 94 0.5 CALM 0 0 0 0 1020.8 1020.8 0.0
19/04:00am 11.3 11.5 10.4 94 0.5 CALM 0 0 0 0 1020.9 1020.9 0.0
19/03:30am 11.4 11.5 10.3 93 0.6 CALM 0 0 0 0 1021.0 1021.0 0.0
19/03:00am 12.0 12.3 10.9 93 0.6 CALM 0 0 0 0 1021.3 1021.3 0.0
19/02:30am 12.0 11.1 10.7 92 0.7 NW 6 7 3 4 1021.6 1021.6 0.0
19/02:00am 12.9 13.5 12.0 94 0.5 CALM 0 0 0 0 1022.0 1022.0 0.0
19/01:30am 12.9 13.4 11.6 92 0.7 CALM 0 0 0 0 1022.3 1022.3 0.0
19/01:00am 13.3 13.9 11.9 91 0.7 CALM 0 0 0 0 1022.6 1022.6 0.0
19/12:30am 13.9 14.7 12.5 91 0.8 CALM 0 0 0 0 1022.8 1022.8 0.0
19/12:04am 14.2 14.6 12.4 89 1.0 SW 2 7 1 4 1023.0 1023.0 0.0
19/12:00am 14.6 14.7 12.6 88 1.1 WSW 4 7 2 4 1023.0 1023.0 0.0
 
Date/Time
EDT
Temp
°C
App
Temp
°C
Dew
Point
°C
Rel
Hum
%
Delta-T
°C
Wind Press
QNH
hPa
Press
MSL
hPa
Rain since
9am
mm
Dir  Spd
km/h
Gust
km/h
Spd
kts
Gust
kts
18/11:44pm 14.9 15.7 12.6 86 1.3 CALM 0 0 0 0 1023.1 1023.1 0.0
18/11:34pm 15.2 15.4 12.9 86 1.3 NNW 4 7 2 4 1023.1 1023.1 0.0
18/11:30pm 15.4 15.2 12.9 85 1.4 NNE 6 9 3 5 1023.1 1023.1 0.0
18/11:02pm 16.2 16.1 13.9 86 1.3 ENE 7 11 4 6 1023.1 1023.1 0.0
18/11:00pm 16.3 16.2 14.0 86 1.3 ENE 7 11 4 6 1023.1 1023.1 0.0
18/10:30pm 16.4 16.3 13.9 85 1.4 ENE 7 11 4 6 1023.2 1023.2 0.0
18/10:00pm 16.7 16.6 13.8 83 1.6 ENE 7 11 4 6 1023.3 1023.3 0.0
18/09:30pm 17.3 16.7 13.6 79 2.1 ENE 9 15 5 8 1023.5 1023.5 0.0
18/09:00pm 18.5 17.4 14.2 76 2.5 NNE 13 19 7 10 1023.4 1023.4 0.0
18/08:30pm 18.8 17.6 14.1 74 2.7 NNE 13 24 7 13 1023.2 1023.2 0.0
18/08:00pm 18.4 17.2 14.1 76 2.5 NNE 13 19 7 10 1022.9 1022.9 0.0
18/07:30pm 18.4 16.8 13.9 75 2.6 NNE 15 26 8 14 1022.5 1022.5 0.0
18/07:00pm 18.8 16.3 14.1 74 2.7 NNE 20 33 11 18 1022.4 1022.4 0.0
18/06:30pm 19.5 16.6 14.1 71 3.1 NNE 22 43 12 23 1022.6 1022.6 0.0
18/06:00pm 20.0 17.5 14.1 69 3.4 NNE 20 35 11 19 1022.7 1022.7 0.0
18/05:30pm 20.4 16.8 14.3 68 3.5 NNE 26 39 14 21 1022.7 1022.7 0.0
18/05:00pm 20.4 16.5 14.5 69 3.4 NNE 28 54 15 29 1022.4 1022.4 0.0
18/04:30pm 20.7 16.8 14.4 67 3.7 NNE 28 52 15 28 1022.3 1022.3 0.0
18/04:00pm 21.2 17.4 14.8 67 3.7 NNE 28 46 15 25 1022.8 1022.8 0.0
18/03:30pm 20.8 16.9 14.5 67 3.7 NNE 28 46 15 25 1022.9 1022.9 0.0
18/03:00pm 21.6 17.8 14.7 65 4.0 NNE 28 54 15 29 1023.3 1023.3 0.0
18/02:31pm 21.4 17.7 15.0 67 3.8 NNE 28 46 15 25 1023.6 1023.6 0.0
18/02:30pm 21.7 18.1 15.3 67 3.8 NNE 28 44 15 24 1023.6 1023.6 0.0
18/02:01pm 21.6 18.0 15.2 67 3.8 NNE 28 52 15 28 1024.0 1024.0 0.0
18/02:00pm 21.5 18.2 14.9 66 3.9 NNE 26 52 14 28 1024.1 1024.1 0.0
18/01:30pm 21.8 18.3 15.4 67 3.8 NE 28 50 15 27 1024.4 1024.4 0.0
18/01:16pm 21.5 17.8 14.9 66 3.9 NNE 28 52 15 28 1024.5 1024.5 0.0
18/01:00pm 21.7 18.5 15.3 67 3.8 NNE 26 44 14 24 1024.6 1024.6 0.0
18/12:30pm 21.6 18.9 14.5 64 4.2 NNE 22 43 12 23 1025.1 1025.1 0.0
18/12:03pm 21.5 17.4 13.7 61 4.5 NNE 28 48 15 26 1025.4 1025.4 0.0
18/12:00pm 21.1 17.3 13.5 62 4.3 NNE 26 48 14 26 1025.4 1025.4 0.0
18/11:30am 21.1 17.5 13.0 60 4.6 NNE 24 41 13 22 1025.6 1025.6 0.0
18/11:00am 21.6 18.3 12.7 57 5.0 NE 22 37 12 20 1025.7 1025.7 0.0
18/10:30am 21.2 18.2 12.6 58 4.9 NE 20 35 11 19 1025.9 1025.9 0.0
18/10:00am 20.4 17.4 12.1 59 4.6 NE 19 26 10 14 1026.0 1026.0 0.0
18/09:30am 20.2 17.7 10.9 55 5.1 NE 15 22 8 12 1026.0 1026.0 0.0
18/09:00am 19.6 18.0 11.4 59 4.5 N 11 20 6 11 1025.9 1025.9 0.0
18/08:30am 17.1 17.6 12.8 76 2.4 NNW 2 15 1 8 1025.9 1025.9 0.0
18/08:00am 14.2 15.1 12.9 92 0.7 CALM 0 0 0 0 1026.0 1026.0 0.0
18/07:30am 11.7 12.1 11.2 97 0.3 CALM 0 0 0 0 1025.9 1025.9 0.0
18/07:00am 9.6 9.4 9.0 96 0.3 CALM 0 0 0 0 1025.8 1025.8 0.0
18/06:57am 9.5 9.3 8.9 96 0.3 CALM 0 0 0 0 1025.8 1025.8 0.0
18/06:39am 8.8 8.3 8.0 95 0.4 CALM 0 0 0 0 1025.7 1025.7 0.0
18/06:30am 8.7 8.2 7.9 95 0.4 CALM 0 0 0 0 1025.6 1025.6 0.0
18/06:00am 8.7 8.2 7.9 95 0.4 CALM 0 0 0 0 1025.4 1025.4 0.0
18/05:30am 8.8 8.3 7.9 94 0.4 CALM 0 0 0 0 1025.3 1025.3 0.0
18/05:00am 9.2 8.8 8.3 94 0.4 CALM 0 0 0 0 1025.3 1025.3 0.0
18/04:54am 9.1 8.7 8.2 94 0.4 CALM 0 0 0 0 1025.3 1025.3 0.0
18/04:34am 9.3 8.9 8.4 94 0.4 CALM 0 0 0 0 1025.2 1025.2 0.0
18/04:30am 9.6 9.3 8.5 93 0.5 CALM 0 0 0 0 1025.3 1025.3 0.0
18/04:11am 9.4 9.0 8.3 93 0.5 CALM 0 0 0 0 1025.2 1025.2 0.0
18/04:00am 9.8 9.5 8.7 93 0.5 CALM 0 0 0 0 1025.3 1025.3 0.0
18/03:52am 9.9 9.6 8.8 93 0.5 CALM 0 0 0 0 1025.3 1025.3 0.0
18/03:30am 10.3 10.2 9.4 94 0.4 CALM 0 0 0 0 1025.2 1025.2 0.0
18/03:00am 10.3 10.1 9.1 92 0.6 CALM 0 4 0 2 1025.2 1025.2 0.0
18/02:30am 10.6 10.4 9.2 91 0.7 CALM 0 0 0 0 1025.2 1025.2 0.0
18/02:00am 11.2 11.1 9.6 90 0.8 CALM 0 0 0 0 1025.4 1025.4 0.0
18/01:30am 11.9 12.0 10.3 90 0.8 CALM 0 13 0 7 1025.6 1025.6 0.0
18/01:00am 12.6 12.7 10.3 86 1.2 CALM 0 0 0 0 1025.8 1025.8 0.0
18/12:30am 14.0 13.1 11.5 85 1.3 NW 7 9 4 5 1026.0 1026.0 0.0
18/12:00am 15.3 14.7 11.7 79 1.9 NW 6 9 3 5 1026.0 1026.0 0.0
 
Date/Time
EDT
Temp
°C
App
Temp
°C
Dew
Point
°C
Rel
Hum
%
Delta-T
°C
Wind Press
QNH
hPa
Press
MSL
hPa
Rain since
9am
mm
Dir  Spd
km/h
Gust
km/h
Spd
kts
Gust
kts
17/11:30pm 15.9 15.2 11.9 77 2.2 N 7 11 4 6 1026.3 1026.3 0.0
17/11:00pm 16.8 15.8 12.3 75 2.5 N 9 15 5 8 1026.4 1026.4 0.0
17/10:30pm 17.3 16.4 12.6 74 2.6 N 9 19 5 10 1026.5 1026.5 0.0
17/10:00pm 17.6 16.7 12.5 72 2.8 N 9 17 5 9 1026.5 1026.5 0.0
17/09:30pm 18.1 16.4 12.5 70 3.1 N 13 24 7 13 1026.7 1026.7 0.0
17/09:00pm 18.3 16.2 12.5 69 3.2 N 15 24 8 13 1026.5 1026.5 0.0
17/08:30pm 18.2 16.9 12.6 70 3.1 NNE 11 22 6 12 1026.5 1026.5 0.0
17/08:00pm 18.1 16.6 13.2 73 2.7 NNE 13 22 7 12 1026.2 1026.2 0.0

Other Formats:

Comma delimited format used in spreadsheet applications
http://www.bom.gov.au/fwo/IDN60801/IDN60801.95929.axf

JavaScript Object Notation format (JSON) in row-major order
http://www.bom.gov.au/fwo/IDN60801/IDN60801.95929.json